createdAt,value
2022-11-15T00:01:33.357Z,7.36
2022-11-15T00:02:53.737Z,7.36
2022-11-15T00:04:14.153Z,7.38
2022-11-15T00:05:36.198Z,7.38
2022-11-15T00:06:56.237Z,7.39
2022-11-15T00:08:16.269Z,7.38
2022-11-15T00:09:36.532Z,7.37
2022-11-15T00:10:57.176Z,7.37
2022-11-15T00:12:17.643Z,7.37
2022-11-15T00:13:38.145Z,7.36
2022-11-15T00:14:58.472Z,7.37
2022-11-15T00:16:18.494Z,7.37
2022-11-15T00:17:38.670Z,7.38
2022-11-15T00:18:58.929Z,7.38
2022-11-15T00:20:19.113Z,7.39
2022-11-15T00:21:39.396Z,7.38
2022-11-15T00:22:59.884Z,7.37
2022-11-15T00:24:20.362Z,7.37
2022-11-15T00:25:40.801Z,7.37
2022-11-15T00:27:01.050Z,7.38
2022-11-15T00:28:21.119Z,7.37
2022-11-15T00:29:43.657Z,7.38
2022-11-15T00:31:04.918Z,7.38
2022-11-15T00:32:24.993Z,7.37
2022-11-15T00:33:45.592Z,7.37
2022-11-15T00:35:05.968Z,7.36
2022-11-15T00:36:26.380Z,7.36
2022-11-15T00:37:47.782Z,7.35
2022-11-15T00:39:07.650Z,7.35
2022-11-15T00:40:28.154Z,7.36
2022-11-15T00:41:48.232Z,7.35
2022-11-15T00:43:08.414Z,7.36
2022-11-15T00:44:28.278Z,7.33
2022-11-15T00:45:48.201Z,7.30
2022-11-15T00:47:08.369Z,7.28
2022-11-15T00:48:28.806Z,7.26
2022-11-15T00:49:48.940Z,7.26
2022-11-15T00:51:09.317Z,7.25
2022-11-15T00:52:29.367Z,7.25
2022-11-15T00:53:49.513Z,7.25
2022-11-15T00:55:19.214Z,7.26
2022-11-15T00:56:40.269Z,7.27
2022-11-15T00:58:00.296Z,7.26
2022-11-15T00:59:20.356Z,7.24
2022-11-15T01:00:40.307Z,7.23
2022-11-15T01:02:01.470Z,7.23
2022-11-15T01:03:21.538Z,7.23
2022-11-15T01:04:41.843Z,7.23
2022-11-15T01:06:01.910Z,7.22
2022-11-15T01:07:22.012Z,7.22
2022-11-15T01:08:42.348Z,7.20
2022-11-15T01:10:02.927Z,7.19
2022-11-15T01:11:22.736Z,7.18
2022-11-15T01:13:26.127Z,7.18
2022-11-15T01:14:46.213Z,7.16
2022-11-15T01:16:07.402Z,7.15
2022-11-15T01:17:27.617Z,7.16
2022-11-15T01:18:47.833Z,7.17
2022-11-15T01:20:08.488Z,7.17
2022-11-15T01:21:28.838Z,7.17
2022-11-15T01:22:48.879Z,7.16
2022-11-15T01:24:12.191Z,7.15
2022-11-15T01:25:32.438Z,7.14
2022-11-15T01:26:52.328Z,7.13
2022-11-15T01:28:12.584Z,7.13
2022-11-15T01:29:32.802Z,7.13
2022-11-15T01:30:52.866Z,7.13
2022-11-15T01:32:13.225Z,7.13
2022-11-15T01:33:35.045Z,7.11
2022-11-15T01:34:55.689Z,7.09
2022-11-15T01:36:17.615Z,7.07
2022-11-15T01:37:37.643Z,7.06
2022-11-15T01:38:58.237Z,7.06
2022-11-15T01:40:18.762Z,7.04
2022-11-15T01:41:39.118Z,7.02
2022-11-15T01:42:59.163Z,7.02
2022-11-15T01:44:31.416Z,7.00
2022-11-15T01:45:57.054Z,6.99
2022-11-15T01:47:19.806Z,6.99
2022-11-15T01:48:39.950Z,6.98
2022-11-15T01:50:06.604Z,6.97
2022-11-15T01:51:29.134Z,6.95
2022-11-15T01:52:49.099Z,6.93
2022-11-15T01:54:10.954Z,6.92
2022-11-15T01:55:31.527Z,6.92
2022-11-15T01:56:53.666Z,6.90
2022-11-15T01:58:13.734Z,6.88
2022-11-15T01:59:33.977Z,6.87
2022-11-15T02:00:54.206Z,6.85
2022-11-15T02:02:15.014Z,6.85
2022-11-15T02:03:40.244Z,6.83
2022-11-15T02:05:00.432Z,6.82
2022-11-15T02:06:21.988Z,6.80
2022-11-15T02:07:42.434Z,6.80
2022-11-15T02:09:03.258Z,6.79
2022-11-15T02:10:23.956Z,6.77
2022-11-15T02:11:44.419Z,6.77
2022-11-15T02:13:05.349Z,6.75
2022-11-15T02:14:26.966Z,6.75
2022-11-15T02:16:03.055Z,6.73
2022-11-15T02:17:23.497Z,6.70
2022-11-15T02:18:49.587Z,6.69
2022-11-15T02:20:26.840Z,6.67
2022-11-15T02:22:05.669Z,6.65
2022-11-15T02:23:37.663Z,6.63
2022-11-15T02:25:00.399Z,6.62
2022-11-15T02:26:39.347Z,6.60
2022-11-15T02:28:05.617Z,6.58
2022-11-15T02:29:38.220Z,6.57
2022-11-15T02:33:26.565Z,6.55
2022-11-15T02:34:55.731Z,6.56
2022-11-15T02:36:24.257Z,6.56
2022-11-15T02:37:52.253Z,6.57
2022-11-15T02:39:31.132Z,6.56
2022-11-15T02:40:57.328Z,6.57
2022-11-15T02:42:40.682Z,6.57
2022-11-15T02:44:04.061Z,6.57
2022-11-15T02:45:28.548Z,6.57
2022-11-15T02:47:10.174Z,6.61
2022-11-15T02:48:32.093Z,6.63
2022-11-15T02:49:57.309Z,6.63
2022-11-15T02:51:17.898Z,6.64
2022-11-15T02:52:38.474Z,6.65
2022-11-15T02:53:59.153Z,6.65
2022-11-15T02:55:35.764Z,6.65
2022-11-15T02:56:58.884Z,6.64
2022-11-15T02:58:18.908Z,6.63
2022-11-15T02:59:39.437Z,6.62
2022-11-15T03:01:06.065Z,6.61
2022-11-15T03:02:29.723Z,6.60
2022-11-15T03:03:52.917Z,6.59
2022-11-15T03:05:39.485Z,6.57
2022-11-15T03:07:08.399Z,6.55
2022-11-15T03:08:31.960Z,6.54
2022-11-15T03:09:56.722Z,6.53
2022-11-15T03:11:21.373Z,6.52
2022-11-15T03:12:49.267Z,6.50
2022-11-15T03:14:09.574Z,6.49
2022-11-15T03:15:31.368Z,6.47
2022-11-15T03:16:58.679Z,6.47
2022-11-15T03:18:24.302Z,6.46
2022-11-15T03:19:50.579Z,6.45
2022-11-15T03:21:12.895Z,6.44
2022-11-15T03:22:38.845Z,6.44
2022-11-15T03:24:03.027Z,6.44
2022-11-15T03:25:24.691Z,6.44
2022-11-15T03:26:46.027Z,6.43
2022-11-15T03:28:07.130Z,6.43
2022-11-15T03:29:29.908Z,6.43
2022-11-15T03:30:52.700Z,6.44
2022-11-15T03:32:16.889Z,6.44
2022-11-15T03:33:37.054Z,6.44
2022-11-15T03:35:08.360Z,6.42
2022-11-15T03:36:30.889Z,6.42
2022-11-15T03:37:59.870Z,6.43
2022-11-15T03:39:21.631Z,6.42
2022-11-15T03:40:43.316Z,6.41
2022-11-15T03:42:09.510Z,6.40
2022-11-15T03:43:29.946Z,6.39
2022-11-15T03:44:58.823Z,6.39
2022-11-15T03:46:32.986Z,6.37
2022-11-15T03:47:59.279Z,6.35
2022-11-15T03:49:40.641Z,6.36
2022-11-15T03:51:01.334Z,6.36
2022-11-15T03:52:22.254Z,6.36
2022-11-15T03:53:42.830Z,6.36
2022-11-15T03:55:04.754Z,6.36
2022-11-15T03:56:24.861Z,6.36
2022-11-15T03:57:46.447Z,6.35
2022-11-15T03:59:06.705Z,6.35
2022-11-15T04:00:27.642Z,6.34
2022-11-15T04:01:48.286Z,6.33
2022-11-15T04:03:08.709Z,6.33
2022-11-15T04:04:28.730Z,6.34
2022-11-15T04:05:49.010Z,6.35
2022-11-15T04:07:09.407Z,6.34
2022-11-15T04:08:30.234Z,6.35
2022-11-15T04:10:02.637Z,6.34
2022-11-15T04:11:22.920Z,6.35
2022-11-15T04:12:44.409Z,6.34
2022-11-15T04:14:04.813Z,6.36
2022-11-15T04:15:24.949Z,6.36
2022-11-15T04:16:45.146Z,6.36
2022-11-15T04:18:05.563Z,6.37
2022-11-15T04:19:44.394Z,6.36
2022-11-15T04:21:22.917Z,6.36
2022-11-15T04:23:01.997Z,6.36
2022-11-15T04:24:22.011Z,6.36
2022-11-15T04:25:42.943Z,6.36
2022-11-15T04:27:03.262Z,6.36
2022-11-15T04:28:23.147Z,6.35
2022-11-15T04:29:43.352Z,6.35
2022-11-15T04:31:03.639Z,6.35
2022-11-15T04:32:23.576Z,6.36
2022-11-15T04:33:43.734Z,6.36
2022-11-15T04:35:04.105Z,6.36
2022-11-15T04:36:42.843Z,6.36
2022-11-15T04:38:03.787Z,6.36
2022-11-15T04:39:23.873Z,6.36
2022-11-15T04:40:44.203Z,6.36
2022-11-15T04:42:04.582Z,6.35
2022-11-15T04:43:24.956Z,6.35
2022-11-15T04:44:45.002Z,6.35
2022-11-15T04:46:05.372Z,6.35
2022-11-15T04:47:25.584Z,6.35
2022-11-15T04:48:45.551Z,6.35
2022-11-15T04:50:06.061Z,6.36
2022-11-15T04:51:26.766Z,6.36
2022-11-15T04:52:51.134Z,6.36
2022-11-15T04:54:11.015Z,6.37
2022-11-15T04:55:31.397Z,6.37
2022-11-15T04:56:51.550Z,6.36
2022-11-15T04:58:11.588Z,6.37
2022-11-15T04:59:31.641Z,6.38
2022-11-15T05:00:51.848Z,6.39
2022-11-15T05:02:12.886Z,6.39
2022-11-15T05:03:51.719Z,6.37
2022-11-15T05:05:11.793Z,6.34
2022-11-15T05:06:32.230Z,6.33
2022-11-15T05:07:52.819Z,6.32
2022-11-15T05:09:14.151Z,6.31
2022-11-15T05:10:34.355Z,6.32
2022-11-15T05:11:54.542Z,6.32
2022-11-15T05:13:15.104Z,6.33
2022-11-15T05:14:35.473Z,6.34
2022-11-15T05:15:55.654Z,6.36
2022-11-15T05:17:15.768Z,6.37
2022-11-15T05:18:36.471Z,6.38
2022-11-15T05:19:56.637Z,6.37
2022-11-15T05:21:16.892Z,6.36
2022-11-15T05:22:38.045Z,6.36
2022-11-15T05:23:58.837Z,6.35
2022-11-15T05:25:19.174Z,6.35
2022-11-15T05:26:40.937Z,6.35
2022-11-15T05:28:00.894Z,6.35
2022-11-15T05:29:21.337Z,6.35
2022-11-15T05:30:41.305Z,6.37
2022-11-15T05:32:01.471Z,6.38
2022-11-15T05:33:21.726Z,6.39
2022-11-15T05:34:42.170Z,6.41
2022-11-15T05:36:06.992Z,6.40
2022-11-15T05:37:27.059Z,6.40
2022-11-15T05:38:48.790Z,6.39
2022-11-15T05:40:09.242Z,6.39
2022-11-15T05:41:49.364Z,6.39
2022-11-15T05:43:10.298Z,6.38
2022-11-15T05:44:31.917Z,6.38
2022-11-15T05:45:52.215Z,6.36
2022-11-15T05:47:14.840Z,6.35
2022-11-15T05:48:36.459Z,6.34
2022-11-15T05:49:57.175Z,6.33
2022-11-15T05:51:18.806Z,6.32
2022-11-15T05:52:39.040Z,6.32
2022-11-15T05:54:00.676Z,6.31
2022-11-15T05:55:21.456Z,6.29
2022-11-15T05:56:41.577Z,6.29
2022-11-15T05:58:01.595Z,6.28
2022-11-15T05:59:21.713Z,6.28
2022-11-15T06:00:43.565Z,6.27
2022-11-15T06:02:03.774Z,6.27
2022-11-15T06:03:24.470Z,6.27
2022-11-15T06:04:44.750Z,6.27
2022-11-15T06:06:04.927Z,6.29
2022-11-15T06:07:25.075Z,6.29
2022-11-15T06:08:45.780Z,6.30
2022-11-15T06:10:06.546Z,6.30
2022-11-15T06:11:26.921Z,6.31
2022-11-15T06:12:47.120Z,6.31
2022-11-15T06:14:07.350Z,6.32
2022-11-15T06:15:28.007Z,6.34
2022-11-15T06:16:48.220Z,6.34
2022-11-15T06:18:08.444Z,6.36
2022-11-15T06:19:33.052Z,6.38
2022-11-15T06:20:53.304Z,6.39
2022-11-15T06:22:13.394Z,6.40
2022-11-15T06:23:34.415Z,6.41
2022-11-15T06:24:54.809Z,6.42
2022-11-15T06:26:15.059Z,6.44
2022-11-15T06:27:35.067Z,6.45
2022-11-15T06:28:55.115Z,6.47
2022-11-15T06:30:15.125Z,6.50
2022-11-15T06:31:35.793Z,6.51
2022-11-15T06:33:00.352Z,6.52
2022-11-15T06:34:20.564Z,6.51
2022-11-15T06:35:40.555Z,6.51
2022-11-15T06:37:00.796Z,6.51
2022-11-15T06:38:21.017Z,6.50
2022-11-15T06:39:41.169Z,6.51
2022-11-15T06:41:04.573Z,6.52
2022-11-15T06:42:24.749Z,6.52
2022-11-15T06:43:45.016Z,6.53
2022-11-15T06:45:05.300Z,6.55
2022-11-15T06:46:25.476Z,6.56
2022-11-15T06:47:46.923Z,6.57
2022-11-15T06:49:09.792Z,6.58
2022-11-15T06:50:30.505Z,6.60
2022-11-15T06:51:50.678Z,6.62
2022-11-15T06:53:11.101Z,6.64
2022-11-15T06:54:30.994Z,6.65
2022-11-15T06:55:55.207Z,6.65
2022-11-15T06:57:16.031Z,6.65
2022-11-15T06:58:36.841Z,6.64
2022-11-15T06:59:57.081Z,6.63
2022-11-15T07:01:16.997Z,6.64
2022-11-15T07:02:37.033Z,6.63
2022-11-15T07:03:57.512Z,6.63
2022-11-15T07:05:18.952Z,6.63
2022-11-15T07:06:39.317Z,6.62
2022-11-15T07:07:59.903Z,6.62
2022-11-15T07:09:20.095Z,6.62
2022-11-15T07:10:40.778Z,6.63
2022-11-15T07:12:07.273Z,6.64
2022-11-15T07:13:29.432Z,6.65
2022-11-15T07:14:50.034Z,6.66
2022-11-15T07:16:10.935Z,6.65
2022-11-15T07:17:32.205Z,6.65
2022-11-15T07:18:52.425Z,6.64
2022-11-15T07:20:13.719Z,6.64
2022-11-15T07:21:34.579Z,6.64
2022-11-15T07:23:02.043Z,6.65
2022-11-15T07:24:22.165Z,6.66
2022-11-15T07:25:42.465Z,6.66
2022-11-15T07:27:03.614Z,6.67
2022-11-15T07:28:23.595Z,6.68
2022-11-15T07:29:44.027Z,6.69
2022-11-15T07:31:05.477Z,6.71
2022-11-15T07:32:25.748Z,6.72
2022-11-15T07:33:46.061Z,6.72
2022-11-15T07:35:06.570Z,6.74
2022-11-15T07:36:26.832Z,6.75
2022-11-15T07:37:54.612Z,6.77
2022-11-15T07:39:15.109Z,6.78
2022-11-15T07:40:35.209Z,6.78
2022-11-15T07:42:15.437Z,6.80
2022-11-15T07:43:36.172Z,6.80
2022-11-15T07:44:56.569Z,6.81
2022-11-15T07:46:16.843Z,6.83
2022-11-15T07:47:36.829Z,6.84
2022-11-15T07:48:57.277Z,6.87
2022-11-15T07:50:18.042Z,6.86
2022-11-15T07:51:38.774Z,6.86
2022-11-15T07:52:59.909Z,6.86
2022-11-15T07:54:20.475Z,6.88
2022-11-15T07:55:41.166Z,6.89
2022-11-15T07:57:06.891Z,6.88
2022-11-15T07:58:27.493Z,6.88
2022-11-15T07:59:48.040Z,6.89
2022-11-15T08:01:09.285Z,6.89
2022-11-15T08:02:30.678Z,6.89
2022-11-15T08:03:51.413Z,6.89
2022-11-15T08:05:11.950Z,6.89
2022-11-15T08:06:32.110Z,6.92
2022-11-15T08:07:52.875Z,6.93
2022-11-15T08:09:14.314Z,6.94
2022-11-15T08:10:40.436Z,6.95
2022-11-15T08:12:01.522Z,6.95
2022-11-15T08:13:21.702Z,6.97
2022-11-15T08:14:42.150Z,7.00
2022-11-15T08:16:03.500Z,7.03
2022-11-15T08:17:24.774Z,7.02
2022-11-15T08:18:44.921Z,7.05
2022-11-15T08:20:05.182Z,7.07
2022-11-15T08:21:25.781Z,7.07
2022-11-15T08:22:46.028Z,7.09
2022-11-15T08:24:06.382Z,7.06
2022-11-15T08:25:27.904Z,7.04
2022-11-15T08:26:48.420Z,7.01
2022-11-15T08:28:10.325Z,7.02
2022-11-15T08:29:30.579Z,7.03
2022-11-15T08:30:50.716Z,7.04
2022-11-15T08:32:11.441Z,7.05
2022-11-15T08:33:33.111Z,7.05
2022-11-15T08:34:53.929Z,7.06
2022-11-15T08:36:15.769Z,7.07
2022-11-15T08:37:36.667Z,7.09
2022-11-15T08:38:56.685Z,7.10
2022-11-15T08:40:16.755Z,7.12
2022-11-15T08:41:37.843Z,7.13
2022-11-15T08:42:59.197Z,7.14
2022-11-15T08:44:19.609Z,7.14
2022-11-15T08:45:40.066Z,7.14
2022-11-15T08:47:00.435Z,7.15
2022-11-15T08:48:20.630Z,7.16
2022-11-15T08:49:40.968Z,7.17
2022-11-15T08:51:01.325Z,7.16
2022-11-15T08:52:21.900Z,7.17
2022-11-15T08:53:42.782Z,7.15
2022-11-15T08:55:03.292Z,7.14
2022-11-15T08:56:23.321Z,7.13
2022-11-15T08:57:43.673Z,7.11
2022-11-15T08:59:04.284Z,7.12
2022-11-15T09:00:24.612Z,7.11
2022-11-15T09:01:44.649Z,7.11
2022-11-15T09:03:06.105Z,7.11
2022-11-15T09:04:26.080Z,7.10
2022-11-15T09:05:46.186Z,7.08
2022-11-15T09:07:06.207Z,7.06
2022-11-15T09:10:09.618Z,7.05
2022-11-15T09:11:30.184Z,7.04
2022-11-15T09:12:50.902Z,7.05
2022-11-15T09:14:11.628Z,7.04
2022-11-15T09:15:32.133Z,7.03
2022-11-15T09:16:52.777Z,7.03
2022-11-15T09:18:12.897Z,7.02
2022-11-15T09:19:33.211Z,7.02
2022-11-15T09:21:00.111Z,7.02
2022-11-15T09:22:20.273Z,7.00
2022-11-15T09:23:40.332Z,6.99
2022-11-15T09:25:01.051Z,6.98
2022-11-15T09:26:21.305Z,6.97
2022-11-15T09:27:41.485Z,6.95
2022-11-15T09:29:02.286Z,6.93
2022-11-15T09:30:23.181Z,6.93
2022-11-15T09:31:43.047Z,6.92
2022-11-15T09:33:09.561Z,6.91
2022-11-15T09:34:29.670Z,6.90
2022-11-15T09:35:50.350Z,6.89
2022-11-15T09:37:10.243Z,6.89
2022-11-15T09:38:30.693Z,6.90
2022-11-15T09:39:51.177Z,6.89
2022-11-15T09:41:11.114Z,6.89
2022-11-15T09:42:45.161Z,6.90
2022-11-15T09:44:14.034Z,6.90
2022-11-15T09:45:37.140Z,6.90
2022-11-15T09:47:04.299Z,6.90
2022-11-15T09:48:43.709Z,6.90
2022-11-15T09:50:09.583Z,6.89
2022-11-15T09:51:26.094Z,6.88
2022-11-15T09:52:28.188Z,6.89
2022-11-15T09:54:30.432Z,6.90
2022-11-15T09:55:21.626Z,6.91
2022-11-15T09:56:26.331Z,6.91
2022-11-15T09:57:32.968Z,6.91
2022-11-15T09:58:55.065Z,6.90
2022-11-15T10:00:38.888Z,6.91
2022-11-15T10:01:39.191Z,6.91
2022-11-15T10:02:52.022Z,6.91
2022-11-15T10:03:56.771Z,6.92
2022-11-15T10:04:59.613Z,6.94
2022-11-15T10:06:03.169Z,6.94
2022-11-15T10:07:12.860Z,6.94
2022-11-15T10:08:23.645Z,6.94
2022-11-15T10:09:45.580Z,6.97
2022-11-15T10:11:09.643Z,6.99
2022-11-15T10:12:16.023Z,6.99
2022-11-15T10:13:22.873Z,7.01
2022-11-15T10:14:25.937Z,7.02
2022-11-15T10:15:27.724Z,7.04
2022-11-15T10:16:32.304Z,7.06
2022-11-15T10:17:50.951Z,7.07
2022-11-15T10:19:07.661Z,7.07
2022-11-15T10:20:21.117Z,7.09
2022-11-15T10:21:33.007Z,7.11
2022-11-15T10:22:34.617Z,7.12
2022-11-15T10:23:36.312Z,7.12
2022-11-15T10:24:42.110Z,7.12
2022-11-15T10:25:44.262Z,7.11
2022-11-15T10:26:49.564Z,7.11
2022-11-15T10:27:56.453Z,7.11
2022-11-15T10:28:57.976Z,7.13
2022-11-15T10:29:59.436Z,7.14
2022-11-15T10:31:07.414Z,7.14
2022-11-15T10:32:10.932Z,7.15
2022-11-15T10:33:13.365Z,7.19
2022-11-15T10:34:22.814Z,7.22
2022-11-15T10:35:29.697Z,7.25
2022-11-15T10:36:32.035Z,7.26
2022-11-15T10:37:33.859Z,7.27
2022-11-15T10:38:50.450Z,7.30
2022-11-15T10:40:15.251Z,7.31
2022-11-15T10:41:18.723Z,7.34
2022-11-15T10:42:27.449Z,7.36
2022-11-15T10:43:29.034Z,7.37
2022-11-15T10:44:31.601Z,7.38
2022-11-15T10:45:34.440Z,7.39
2022-11-15T10:46:46.493Z,7.41
2022-11-15T10:47:48.841Z,7.42
2022-11-15T10:48:50.649Z,7.44
2022-11-15T10:50:14.840Z,7.45
2022-11-15T10:51:22.767Z,7.47
2022-11-15T10:52:24.924Z,7.48
2022-11-15T10:53:26.585Z,7.47
2022-11-15T10:54:48.953Z,7.46
2022-11-15T10:55:51.938Z,7.45
2022-11-15T10:56:55.199Z,7.43
2022-11-15T10:58:02.840Z,7.41
2022-11-15T10:59:04.415Z,7.40
2022-11-15T11:00:21.712Z,7.40
2022-11-15T11:01:24.613Z,7.38
2022-11-15T11:02:35.557Z,7.37
2022-11-15T11:03:38.498Z,7.37
2022-11-15T11:04:50.766Z,7.38
2022-11-15T11:06:03.639Z,7.38
2022-11-15T11:07:20.018Z,7.39
2022-11-15T11:08:25.041Z,7.38
2022-11-15T11:09:37.140Z,7.41
2022-11-15T11:10:51.513Z,7.41
2022-11-15T11:11:54.199Z,7.42
2022-11-15T11:12:56.126Z,7.42
2022-11-15T11:14:11.506Z,7.43
2022-11-15T11:15:14.378Z,7.44
2022-11-15T11:16:26.751Z,7.44
2022-11-15T11:17:47.016Z,7.45
2022-11-15T11:19:07.177Z,7.48
2022-11-15T11:20:33.076Z,7.48
2022-11-15T11:21:43.388Z,7.48
2022-11-15T11:22:51.083Z,7.46
2022-11-15T11:23:54.712Z,7.47
2022-11-15T11:25:14.611Z,7.47
2022-11-15T11:26:25.180Z,7.48
2022-11-15T11:27:36.061Z,7.48
2022-11-15T11:28:42.696Z,7.48
2022-11-15T11:29:57.007Z,7.48
2022-11-15T11:31:17.491Z,7.50
2022-11-15T11:32:22.054Z,7.52
2022-11-15T11:33:46.778Z,7.52
2022-11-15T11:35:07.171Z,7.56
2022-11-15T11:36:20.816Z,7.58
2022-11-15T11:37:45.360Z,7.60
2022-11-15T11:38:46.839Z,7.60
2022-11-15T11:39:51.050Z,7.62
2022-11-15T11:41:01.885Z,7.63
2022-11-15T11:42:22.752Z,7.65
2022-11-15T11:43:24.358Z,7.67
2022-11-15T11:44:41.552Z,7.66
2022-11-15T11:45:47.528Z,7.67
2022-11-15T11:46:54.388Z,7.69
2022-11-15T11:48:21.912Z,7.69
2022-11-15T11:49:23.535Z,7.69
2022-11-15T11:50:28.015Z,7.68
2022-11-15T11:51:48.467Z,7.69
2022-11-15T11:52:50.069Z,7.69
2022-11-15T11:54:04.891Z,7.69
2022-11-15T11:55:42.055Z,7.70
2022-11-15T11:56:44.637Z,7.70
2022-11-15T11:57:46.102Z,7.72
2022-11-15T11:58:48.391Z,7.74
2022-11-15T12:00:02.591Z,7.72
2022-11-15T12:01:20.627Z,7.69
2022-11-15T12:02:28.797Z,7.69
2022-11-15T12:03:49.362Z,7.65
2022-11-15T12:04:54.657Z,7.60
2022-11-15T12:06:05.608Z,7.61
2022-11-15T12:07:19.827Z,7.60
2022-11-15T12:08:21.424Z,7.58
2022-11-15T12:09:41.751Z,7.59
2022-11-15T12:10:45.959Z,7.59
2022-11-15T12:11:51.031Z,7.58
2022-11-15T12:13:08.235Z,7.57
2022-11-15T12:14:16.148Z,7.56
2022-11-15T12:15:37.935Z,7.58
2022-11-15T12:16:42.132Z,7.61
2022-11-15T12:17:44.140Z,7.62
2022-11-15T12:18:48.945Z,7.61
2022-11-15T12:19:51.600Z,7.60
2022-11-15T12:21:16.613Z,7.62
2022-11-15T12:22:42.184Z,7.61
2022-11-15T12:23:46.726Z,7.59
2022-11-15T12:26:08.900Z,7.62
2022-11-15T12:27:26.921Z,7.57
2022-11-15T12:28:30.635Z,7.55
2022-11-15T12:29:42.383Z,7.55
2022-11-15T12:30:47.490Z,7.55
2022-11-15T12:31:52.389Z,7.54
2022-11-15T12:32:55.726Z,7.55
2022-11-15T12:34:04.282Z,7.58
2022-11-15T12:35:25.274Z,7.57
2022-11-15T12:36:34.185Z,7.56
2022-11-15T12:37:38.696Z,7.55
2022-11-15T12:39:05.343Z,7.56
2022-11-15T12:40:08.232Z,7.57
2022-11-15T12:41:15.607Z,7.56
2022-11-15T12:42:18.439Z,7.54
2022-11-15T12:43:37.702Z,7.54
2022-11-15T12:44:40.465Z,7.57
2022-11-15T12:45:47.190Z,7.57
2022-11-15T12:46:49.995Z,7.60
2022-11-15T12:47:52.808Z,7.63
2022-11-15T12:49:00.250Z,7.64
2022-11-15T12:50:03.159Z,7.63
2022-11-15T12:51:06.482Z,7.64
2022-11-15T12:52:10.043Z,7.64
2022-11-15T12:53:32.180Z,7.64
2022-11-15T12:54:41.208Z,7.63
2022-11-15T12:55:44.179Z,7.62
2022-11-15T12:57:07.714Z,7.62
2022-11-15T12:58:29.525Z,7.65
2022-11-15T13:00:05.315Z,7.65
2022-11-15T13:01:08.612Z,7.65
2022-11-15T13:02:38.188Z,7.67
2022-11-15T13:03:59.861Z,7.69
2022-11-15T13:05:21.339Z,7.69
2022-11-15T13:06:56.903Z,7.68
2022-11-15T13:08:00.032Z,7.66
2022-11-15T13:09:02.974Z,7.65
2022-11-15T13:10:11.630Z,7.64
2022-11-15T13:11:34.731Z,7.63
2022-11-15T13:12:40.312Z,7.64
2022-11-15T13:13:44.632Z,7.65
2022-11-15T13:14:49.880Z,7.65
2022-11-15T13:15:54.551Z,7.64
2022-11-15T13:17:00.545Z,7.65
2022-11-15T13:18:22.313Z,7.66
2022-11-15T13:19:25.728Z,7.65
2022-11-15T13:20:32.744Z,7.63
2022-11-15T13:21:54.292Z,7.62
2022-11-15T13:23:17.423Z,7.59
2022-11-15T13:24:20.475Z,7.55
2022-11-15T13:25:23.545Z,7.53
2022-11-15T13:26:26.592Z,7.52
2022-11-15T13:27:29.799Z,7.51
2022-11-15T13:28:34.715Z,7.51
2022-11-15T13:29:38.364Z,7.51
2022-11-15T13:30:49.553Z,7.51
2022-11-15T13:31:53.016Z,7.51
2022-11-15T13:32:56.453Z,7.52
2022-11-15T13:34:02.507Z,7.51
2022-11-15T13:35:08.268Z,7.49
2022-11-15T13:36:17.796Z,7.48
2022-11-15T13:37:20.697Z,7.48
2022-11-15T13:38:30.309Z,7.48
2022-11-15T13:39:35.348Z,7.48
2022-11-15T13:40:38.792Z,7.49
2022-11-15T13:41:52.067Z,7.47
2022-11-15T13:42:55.175Z,7.44
2022-11-15T13:43:58.985Z,7.42
2022-11-15T13:45:03.275Z,7.41
2022-11-15T13:46:06.328Z,7.41
2022-11-15T13:47:12.272Z,7.43
2022-11-15T13:48:15.254Z,7.43
2022-11-15T13:49:18.676Z,7.41
2022-11-15T13:50:26.044Z,7.40
2022-11-15T13:51:40.472Z,7.38
2022-11-15T13:52:46.638Z,7.36
2022-11-15T13:53:53.187Z,7.35
2022-11-15T13:55:10.995Z,7.35
2022-11-15T13:56:16.229Z,7.35
2022-11-15T13:57:23.962Z,7.34
2022-11-15T13:58:27.138Z,7.32
2022-11-15T13:59:31.820Z,7.28
2022-11-15T14:00:40.058Z,7.26
2022-11-15T14:01:44.530Z,7.24
2022-11-15T14:02:47.711Z,7.23
2022-11-15T14:03:56.378Z,7.23
2022-11-15T14:05:02.380Z,7.21
2022-11-15T14:06:13.650Z,7.21
2022-11-15T14:07:18.711Z,7.20
2022-11-15T14:08:21.746Z,7.20
2022-11-15T14:09:35.938Z,7.19
2022-11-15T14:10:39.169Z,7.20
2022-11-15T14:11:55.288Z,7.20
2022-11-15T14:12:58.968Z,7.20
2022-11-15T14:14:14.246Z,7.18
2022-11-15T14:15:27.212Z,7.16
2022-11-15T14:16:36.402Z,7.14
2022-11-15T14:17:45.671Z,7.13
2022-11-15T14:18:54.346Z,7.10
2022-11-15T14:20:00.428Z,7.06
2022-11-15T14:21:07.609Z,7.04
2022-11-15T14:22:15.079Z,7.03
2022-11-15T14:23:27.479Z,7.04
2022-11-15T14:24:32.325Z,7.05
2022-11-15T14:25:36.585Z,7.06
2022-11-15T14:26:39.867Z,7.07
2022-11-15T14:27:43.899Z,7.07
2022-11-15T14:28:47.026Z,7.09
2022-11-15T14:29:50.312Z,7.09
2022-11-15T14:30:54.579Z,7.09
2022-11-15T14:32:27.057Z,7.09
2022-11-15T14:33:30.630Z,7.10
2022-11-15T14:34:33.666Z,7.12
2022-11-15T14:35:39.241Z,7.12
2022-11-15T14:36:42.379Z,7.12
2022-11-15T14:37:45.836Z,7.10
2022-11-15T14:38:48.963Z,7.08
2022-11-15T14:39:52.300Z,7.06
2022-11-15T14:40:56.786Z,7.04
2022-11-15T14:41:59.699Z,7.02
2022-11-15T14:43:02.706Z,7.00
2022-11-15T14:44:06.643Z,7.00
2022-11-15T14:45:19.838Z,6.99
2022-11-15T14:46:22.778Z,6.97
2022-11-15T14:47:25.914Z,6.95
2022-11-15T14:48:30.100Z,6.93
2022-11-15T14:49:33.203Z,6.92
2022-11-15T14:50:36.999Z,6.92
2022-11-15T14:51:39.902Z,6.92
2022-11-15T14:52:43.879Z,6.91
2022-11-15T14:53:47.698Z,6.89
2022-11-15T14:54:50.767Z,6.89
2022-11-15T14:55:53.608Z,6.90
2022-11-15T14:56:56.637Z,6.92
2022-11-15T14:58:00.291Z,6.92
2022-11-15T14:59:03.267Z,6.93
2022-11-15T15:00:06.614Z,6.93
2022-11-15T15:01:18.544Z,6.93
2022-11-15T15:02:22.526Z,6.94
2022-11-15T15:03:25.700Z,6.93
2022-11-15T15:04:28.646Z,6.92
2022-11-15T15:05:31.603Z,6.90
2022-11-15T15:06:34.525Z,6.89
2022-11-15T15:07:37.774Z,6.89
2022-11-15T15:08:41.660Z,6.88
2022-11-15T15:09:45.188Z,6.87
2022-11-15T15:10:48.303Z,6.86
2022-11-15T15:11:51.139Z,6.86
2022-11-15T15:12:54.052Z,6.86
2022-11-15T15:13:58.420Z,6.86
2022-11-15T15:15:01.364Z,6.84
2022-11-15T15:16:04.258Z,6.84
2022-11-15T15:17:07.178Z,6.83
2022-11-15T15:18:10.168Z,6.82
2022-11-15T15:19:13.327Z,6.80
2022-11-15T15:20:16.549Z,6.79
2022-11-15T15:21:28.108Z,6.80
2022-11-15T15:22:33.943Z,6.79
2022-11-15T15:23:36.997Z,6.79
2022-11-15T15:24:39.918Z,6.80
2022-11-15T15:25:43.140Z,6.79
2022-11-15T15:26:46.021Z,6.77
2022-11-15T15:27:49.376Z,6.78
2022-11-15T15:28:52.748Z,6.77
2022-11-15T15:29:55.726Z,6.78
2022-11-15T15:30:58.765Z,6.79
2022-11-15T15:32:01.722Z,6.78
2022-11-15T15:33:04.646Z,6.76
2022-11-15T15:34:12.128Z,6.76
2022-11-15T15:35:19.359Z,6.76
2022-11-15T15:36:22.481Z,6.76
2022-11-15T15:37:26.108Z,6.77
2022-11-15T15:38:29.048Z,6.78
2022-11-15T15:39:32.145Z,6.79
2022-11-15T15:40:35.156Z,6.79
2022-11-15T15:41:38.094Z,6.81
2022-11-15T15:42:41.164Z,6.82
2022-11-15T15:43:44.954Z,6.83
2022-11-15T15:44:48.403Z,6.84
2022-11-15T15:45:51.384Z,6.85
2022-11-15T15:46:54.491Z,6.86
2022-11-15T15:47:57.391Z,6.86
2022-11-15T15:49:00.307Z,6.83
2022-11-15T15:50:03.912Z,6.81
2022-11-15T15:51:14.113Z,6.80
2022-11-15T15:52:21.833Z,6.82
2022-11-15T15:53:24.706Z,6.82
2022-11-15T15:54:27.652Z,6.84
2022-11-15T15:55:31.394Z,6.84
2022-11-15T15:56:34.440Z,6.85
2022-11-15T15:57:37.617Z,6.87
2022-11-15T15:58:40.565Z,6.88
2022-11-15T15:59:43.575Z,6.89
2022-11-15T16:00:46.514Z,6.90
2022-11-15T16:01:49.425Z,6.90
2022-11-15T16:02:53.346Z,6.89
2022-11-15T16:03:56.246Z,6.88
2022-11-15T16:04:59.471Z,6.87
2022-11-15T16:06:05.409Z,6.86
2022-11-15T16:07:13.887Z,6.86
2022-11-15T16:08:21.346Z,6.86
2022-11-15T16:09:44.238Z,6.86
2022-11-15T16:10:47.661Z,6.85
2022-11-15T16:11:50.537Z,6.84
2022-11-15T16:12:54.509Z,6.84
2022-11-15T16:13:57.593Z,6.84
2022-11-15T16:15:01.355Z,6.84
2022-11-15T16:16:10.112Z,6.84
2022-11-15T16:17:17.932Z,6.83
2022-11-15T16:18:20.959Z,6.81
2022-11-15T16:19:23.923Z,6.80
2022-11-15T16:20:38.262Z,6.81
2022-11-15T16:21:41.260Z,6.83
2022-11-15T16:22:44.137Z,6.84
2022-11-15T16:23:46.971Z,6.84
2022-11-15T16:24:53.361Z,6.84
2022-11-15T16:25:56.827Z,6.85
2022-11-15T16:27:00.042Z,6.87
2022-11-15T16:28:02.922Z,6.90
2022-11-15T16:29:07.973Z,6.90
2022-11-15T16:30:13.928Z,6.90
2022-11-15T16:31:19.290Z,6.91
2022-11-15T16:32:22.328Z,6.92
2022-11-15T16:33:25.452Z,6.94
2022-11-15T16:34:31.571Z,6.94
2022-11-15T16:35:36.848Z,6.94
2022-11-15T16:36:39.927Z,6.93
2022-11-15T16:37:45.069Z,6.92
2022-11-15T16:38:48.491Z,6.91
2022-11-15T16:39:52.147Z,6.92
2022-11-15T16:40:56.446Z,6.92
2022-11-15T16:41:59.951Z,6.92
2022-11-15T16:43:04.647Z,6.92
2022-11-15T16:44:07.597Z,6.93
2022-11-15T16:45:12.928Z,6.94
2022-11-15T16:46:20.255Z,6.94
2022-11-15T16:47:23.823Z,6.93
2022-11-15T16:48:27.873Z,6.94
2022-11-15T16:49:30.935Z,6.93
2022-11-15T16:50:40.050Z,6.94
2022-11-15T16:51:45.124Z,6.92